Salt Lake City, UT

4:31 AM MST en Diciembre 20, 2014 (GMT -0700)
South Salt Lake | Change Station
CLOSE
Current Station
Estación meteorológica personal
Location: Salt Lake City, UT
Altura: 4273 ft
Estaciones meteorológicas cercanas

Alt 4273 ft 40.72 °N, 111.88 °W | Updated 27 minutes ago

Nublado
Nublado
40.1 ° F
Sensación térmica 40 ° F
N
0.0
Viento Variable Viento desde Sur
Gusts 1.0 mph

Hoy
Alta -- | Baja -- ° F
--% Posibilidad de precipitaciones
Ayer
Alta -- | Baja -- ° F
Precip. -- pul
7:47 AM 5:02 PM
Creciente menguante, 3% visible
Presión 30.12 pul
Visibilidad 10.0 Millas
Nubes Baja 3500 ft
Muy nublado 4400 ft
Muy nublado 6000 ft
Vientos helados 40 ° F
Punto de rocío 33 ° F
Humedad 75%
Precipitaciones 0.00 pul
Espesor de la nieve No disponible.
UV 0 de una escala de 12
Polen .10 de una escala de 12
Calidad del aire No disponible.
Flu Activity No disponible.
METAR KSLC 201053Z 00000KT 10SM FEW035 BKN044 BKN060 04/01 A3013 RMK AO2 SLP198 VIRGA OHD T00390006

More Conditions Fewer Conditions

Presión 30.12 pul
Visibilidad 10.0 Millas
Nubes Baja 3500 ft
Muy nublado 4400 ft
Muy nublado 6000 ft
Vientos helados 40 ° F
Punto de rocío 33 ° F
Humedad 75%
Precipitaciones 0.00 pul
Espesor de la nieve No disponible.
UV 0 de una escala de 12
Polen .10 de una escala de 12
Calidad del aire No disponible.
Flu Activity No disponible.
METAR KSLC 201053Z 00000KT 10SM FEW035 BKN044 BKN060 04/01 A3013 RMK AO2 SLP198 VIRGA OHD T00390006

More Conditions Fewer Conditions

10-Day Weather Forecast

Almanac

Astronomía

Dec. 20, 2014 Salida Puesta
Hora real
Crepúsculo civil
Crepúsculo náutico
Crepúsculo astronómico
Luna
Horas de luz
Horas de luz
Tomorrow will be .
, % of the Moon is Illuminated

Extremos de hoy

Máximos del estado Bajos del estado

Community

WunderPhotos

Upload Photos

1,779,151 ¡fotos cargadas!

WunderBlogs® & News

Nearby

Calidad del aire

  Calidad del aire Índice AQ Contaminante
Not available.

Grosos de nieve

Estación Profundido Altura

Actividad de terremotos

Ciudad Distance Mag. Tiempo y dato
Magnitud mínima muestra es 2,5.

Temperaturas de aguas costeras

Lugar Temperatura

Estaciones meteorológicas cercanas